sensor_id;sensor_type;location;lat;lon;timestamp;pressure;altitude;pressure_sealevel;temperature;humidity
14067;BME280;7108;42.684;23.350;2022-08-25T00:01:10;95193.25;;;21.11;100.00
14067;BME280;7108;42.684;23.350;2022-08-25T00:03:40;95175.78;;;21.06;100.00
14067;BME280;7108;42.684;23.350;2022-08-25T00:06:07;95159.31;;;20.90;100.00
14067;BME280;7108;42.684;23.350;2022-08-25T00:08:33;95157.53;;;20.99;100.00
14067;BME280;7108;42.684;23.350;2022-08-25T00:11:03;95186.22;;;21.10;100.00
14067;BME280;7108;42.684;23.350;2022-08-25T00:13:29;95177.13;;;20.98;100.00
14067;BME280;7108;42.684;23.350;2022-08-25T00:15:55;95183.94;;;21.09;100.00
14067;BME280;7108;42.684;23.350;2022-08-25T00:18:20;95168.56;;;20.96;100.00
14067;BME280;7108;42.684;23.350;2022-08-25T00:20:47;95168.63;;;20.92;100.00
14067;BME280;7108;42.684;23.350;2022-08-25T00:23:12;95155.38;;;20.91;100.00
14067;BME280;7108;42.684;23.350;2022-08-25T00:25:38;95180.22;;;21.00;100.00
14067;BME280;7108;42.684;23.350;2022-08-25T00:28:03;95175.50;;;21.00;100.00
14067;BME280;7108;42.684;23.350;2022-08-25T00:30:29;95165.03;;;20.95;100.00
14067;BME280;7108;42.684;23.350;2022-08-25T00:32:54;95161.09;;;20.96;100.00
14067;BME280;7108;42.684;23.350;2022-08-25T00:35:20;95170.44;;;20.99;100.00
14067;BME280;7108;42.684;23.350;2022-08-25T00:37:46;95161.97;;;20.93;100.00
14067;BME280;7108;42.684;23.350;2022-08-25T00:40:11;95171.91;;;21.03;100.00
14067;BME280;7108;42.684;23.350;2022-08-25T00:42:37;95178.53;;;21.06;100.00
14067;BME280;7108;42.684;23.350;2022-08-25T00:45:04;95182.53;;;21.01;100.00
14067;BME280;7108;42.684;23.350;2022-08-25T00:47:30;95179.03;;;21.01;100.00
14067;BME280;7108;42.684;23.350;2022-08-25T00:49:58;95192.72;;;21.01;100.00
14067;BME280;7108;42.684;23.350;2022-08-25T00:52:32;95192.72;;;21.01;100.00
14067;BME280;7108;42.684;23.350;2022-08-25T00:55:06;95192.78;;;20.97;100.00
14067;BME280;7108;42.684;23.350;2022-08-25T00:57:38;95185.50;;;20.91;100.00
14067;BME280;7108;42.684;23.350;2022-08-25T01:00:15;95177.28;;;20.91;100.00
14067;BME280;7108;42.684;23.350;2022-08-25T01:02:42;95166.13;;;20.82;100.00
14067;BME280;7108;42.684;23.350;2022-08-25T01:05:08;95145.56;;;20.74;100.00
14067;BME280;7108;42.684;23.350;2022-08-25T01:07:33;95134.97;;;20.76;100.00
14067;BME280;7108;42.684;23.350;2022-08-25T01:09:59;95146.97;;;20.82;100.00
14067;BME280;7108;42.684;23.350;2022-08-25T01:12:25;95132.16;;;20.79;100.00
14067;BME280;7108;42.684;23.350;2022-08-25T01:14:52;95137.69;;;20.76;100.00
14067;BME280;7108;42.684;23.350;2022-08-25T01:17:18;95155.78;;;20.70;100.00
14067;BME280;7108;42.684;23.350;2022-08-25T01:19:45;95152.50;;;20.78;100.00
14067;BME280;7108;42.684;23.350;2022-08-25T01:22:10;95161.84;;;20.81;100.00
14067;BME280;7108;42.684;23.350;2022-08-25T01:24:41;95155.19;;;20.82;100.00
14067;BME280;7108;42.684;23.350;2022-08-25T01:27:09;95149.06;;;20.74;100.00
14067;BME280;7108;42.684;23.350;2022-08-25T01:29:36;95162.91;;;20.87;100.00
14067;BME280;7108;42.684;23.350;2022-08-25T01:32:05;95155.09;;;20.85;100.00
14067;BME280;7108;42.684;23.350;2022-08-25T01:34:34;95152.00;;;20.83;100.00
14067;BME280;7108;42.684;23.350;2022-08-25T01:37:00;95148.84;;;20.85;100.00
14067;BME280;7108;42.684;23.350;2022-08-25T01:39:28;95126.31;;;20.77;100.00
14067;BME280;7108;42.684;23.350;2022-08-25T01:44:32;95153.56;;;20.84;100.00
14067;BME280;7108;42.684;23.350;2022-08-25T01:47:00;95165.72;;;20.83;100.00
14067;BME280;7108;42.684;23.350;2022-08-25T01:49:25;95150.53;;;20.79;100.00
14067;BME280;7108;42.684;23.350;2022-08-25T01:52:28;95158.09;;;20.91;100.00
14067;BME280;7108;42.684;23.350;2022-08-25T01:54:54;95156.31;;;20.84;100.00
14067;BME280;7108;42.684;23.350;2022-08-25T01:57:19;95141.56;;;20.78;100.00
14067;BME280;7108;42.684;23.350;2022-08-25T01:59:46;95145.00;;;20.82;100.00
14067;BME280;7108;42.684;23.350;2022-08-25T02:02:12;95140.38;;;20.79;100.00
14067;BME280;7108;42.684;23.350;2022-08-25T02:04:38;95151.06;;;20.70;100.00
14067;BME280;7108;42.684;23.350;2022-08-25T02:07:07;95136.16;;;20.75;100.00
14067;BME280;7108;42.684;23.350;2022-08-25T02:09:34;95145.06;;;20.79;100.00
14067;BME280;7108;42.684;23.350;2022-08-25T02:12:00;95152.78;;;20.84;100.00
14067;BME280;7108;42.684;23.350;2022-08-25T02:14:26;95134.53;;;20.77;100.00
14067;BME280;7108;42.684;23.350;2022-08-25T02:16:53;95127.94;;;20.75;100.00
14067;BME280;7108;42.684;23.350;2022-08-25T02:19:20;95127.28;;;20.67;100.00
14067;BME280;7108;42.684;23.350;2022-08-25T02:21:47;95140.09;;;20.74;100.00
14067;BME280;7108;42.684;23.350;2022-08-25T02:24:13;95122.66;;;20.64;100.00
14067;BME280;7108;42.684;23.350;2022-08-25T02:26:40;95124.97;;;20.66;100.00
14067;BME280;7108;42.684;23.350;2022-08-25T02:29:07;95141.00;;;20.87;100.00
14067;BME280;7108;42.684;23.350;2022-08-25T02:31:33;95138.66;;;20.85;100.00
14067;BME280;7108;42.684;23.350;2022-08-25T02:33:59;95132.47;;;20.81;100.00
14067;BME280;7108;42.684;23.350;2022-08-25T02:36:26;95108.06;;;20.71;100.00
14067;BME280;7108;42.684;23.350;2022-08-25T02:38:52;95128.19;;;20.80;100.00
14067;BME280;7108;42.684;23.350;2022-08-25T02:41:20;95131.97;;;20.86;100.00
14067;BME280;7108;42.684;23.350;2022-08-25T02:43:47;95132.34;;;20.88;100.00
14067;BME280;7108;42.684;23.350;2022-08-25T02:46:14;95139.75;;;20.88;100.00
14067;BME280;7108;42.684;23.350;2022-08-25T02:48:41;95116.13;;;20.78;100.00
14067;BME280;7108;42.684;23.350;2022-08-25T02:51:08;95139.69;;;20.91;100.00
14067;BME280;7108;42.684;23.350;2022-08-25T02:53:35;95131.66;;;20.84;100.00
14067;BME280;7108;42.684;23.350;2022-08-25T02:56:02;95127.78;;;20.82;100.00
14067;BME280;7108;42.684;23.350;2022-08-25T02:58:27;95144.13;;;20.85;100.00
14067;BME280;7108;42.684;23.350;2022-08-25T03:00:53;95137.53;;;20.83;100.00
14067;BME280;7108;42.684;23.350;2022-08-25T03:03:20;95149.59;;;20.85;100.00
14067;BME280;7108;42.684;23.350;2022-08-25T03:05:46;95143.44;;;20.81;100.00
14067;BME280;7108;42.684;23.350;2022-08-25T03:08:12;95163.16;;;20.92;100.00
14067;BME280;7108;42.684;23.350;2022-08-25T03:10:38;95138.03;;;20.78;100.00
14067;BME280;7108;42.684;23.350;2022-08-25T03:13:04;95155.50;;;20.84;100.00
14067;BME280;7108;42.684;23.350;2022-08-25T03:15:29;95128.00;;;20.52;100.00
14067;BME280;7108;42.684;23.350;2022-08-25T03:17:55;95154.81;;;20.60;100.00
14067;BME280;7108;42.684;23.350;2022-08-25T03:20:23;95147.66;;;20.66;100.00
14067;BME280;7108;42.684;23.350;2022-08-25T03:22:49;95126.38;;;20.54;100.00
14067;BME280;7108;42.684;23.350;2022-08-25T03:25:15;95157.69;;;20.73;100.00
14067;BME280;7108;42.684;23.350;2022-08-25T03:28:00;95147.91;;;20.72;100.00
14067;BME280;7108;42.684;23.350;2022-08-25T03:30:27;95135.44;;;20.71;100.00
14067;BME280;7108;42.684;23.350;2022-08-25T03:32:53;95146.38;;;20.71;100.00
14067;BME280;7108;42.684;23.350;2022-08-25T03:35:19;95148.91;;;20.81;100.00
14067;BME280;7108;42.684;23.350;2022-08-25T03:37:44;95157.94;;;20.82;100.00
14067;BME280;7108;42.684;23.350;2022-08-25T03:40:13;95161.59;;;20.91;100.00
14067;BME280;7108;42.684;23.350;2022-08-25T03:42:40;95147.66;;;20.86;100.00
14067;BME280;7108;42.684;23.350;2022-08-25T03:45:06;95159.91;;;20.97;100.00
14067;BME280;7108;42.684;23.350;2022-08-25T03:47:32;95146.47;;;20.87;100.00
14067;BME280;7108;42.684;23.350;2022-08-25T03:49:58;95144.41;;;20.71;100.00
14067;BME280;7108;42.684;23.350;2022-08-25T03:52:24;95138.47;;;20.76;100.00
14067;BME280;7108;42.684;23.350;2022-08-25T03:54:50;95127.28;;;20.67;100.00
14067;BME280;7108;42.684;23.350;2022-08-25T03:57:16;95147.88;;;20.75;100.00
14067;BME280;7108;42.684;23.350;2022-08-25T03:59:41;95156.63;;;20.67;100.00
14067;BME280;7108;42.684;23.350;2022-08-25T04:02:07;95150.81;;;20.65;100.00
14067;BME280;7108;42.684;23.350;2022-08-25T04:04:33;95140.97;;;20.67;100.00
14067;BME280;7108;42.684;23.350;2022-08-25T04:06:59;95151.56;;;20.65;100.00
14067;BME280;7108;42.684;23.350;2022-08-25T04:09:25;95147.66;;;20.66;100.00
14067;BME280;7108;42.684;23.350;2022-08-25T04:11:51;95135.09;;;20.49;100.00
14067;BME280;7108;42.684;23.350;2022-08-25T04:14:17;95150.53;;;20.59;100.00
14067;BME280;7108;42.684;23.350;2022-08-25T04:16:43;95151.16;;;20.67;100.00
14067;BME280;7108;42.684;23.350;2022-08-25T04:19:09;95153.38;;;20.72;100.00
14067;BME280;7108;42.684;23.350;2022-08-25T04:21:38;95137.69;;;20.76;100.00
14067;BME280;7108;42.684;23.350;2022-08-25T04:24:06;95143.84;;;20.60;100.00
14067;BME280;7108;42.684;23.350;2022-08-25T04:26:41;95137.41;;;20.51;100.00
14067;BME280;7108;42.684;23.350;2022-08-25T04:29:08;95146.25;;;20.58;100.00
14067;BME280;7108;42.684;23.350;2022-08-25T04:31:35;95117.22;;;20.45;100.00
14067;BME280;7108;42.684;23.350;2022-08-25T04:34:03;95136.50;;;20.57;100.00
14067;BME280;7108;42.684;23.350;2022-08-25T04:36:33;95126.94;;;20.46;100.00
14067;BME280;7108;42.684;23.350;2022-08-25T04:38:58;95130.47;;;20.46;100.00
14067;BME280;7108;42.684;23.350;2022-08-25T04:41:25;95140.00;;;20.58;100.00
14067;BME280;7108;42.684;23.350;2022-08-25T04:43:51;95151.94;;;20.67;100.00
14067;BME280;7108;42.684;23.350;2022-08-25T04:46:21;95161.50;;;20.79;100.00
14067;BME280;7108;42.684;23.350;2022-08-25T04:48:50;95143.88;;;20.80;100.00
14067;BME280;7108;42.684;23.350;2022-08-25T04:51:18;95163.72;;;20.84;100.00
14067;BME280;7108;42.684;23.350;2022-08-25T04:53:44;95153.28;;;20.79;100.00
14067;BME280;7108;42.684;23.350;2022-08-25T04:56:12;95143.72;;;20.67;100.00
14067;BME280;7108;42.684;23.350;2022-08-25T04:58:39;95157.28;;;20.74;100.00
14067;BME280;7108;42.684;23.350;2022-08-25T05:01:11;95161.84;;;20.81;100.00
14067;BME280;7108;42.684;23.350;2022-08-25T05:03:38;95171.19;;;20.83;100.00
14067;BME280;7108;42.684;23.350;2022-08-25T05:06:04;95144.06;;;20.89;100.00
14067;BME280;7108;42.684;23.350;2022-08-25T05:08:31;95147.41;;;20.96;100.00
14067;BME280;7108;42.684;23.350;2022-08-25T05:10:57;95147.69;;;21.02;100.00
14067;BME280;7108;42.684;23.350;2022-08-25T05:13:23;95148.97;;;20.97;100.00
14067;BME280;7108;42.684;23.350;2022-08-25T05:15:58;95145.47;;;20.97;100.00
14067;BME280;7108;42.684;23.350;2022-08-25T05:18:25;95135.34;;;20.94;100.00
14067;BME280;7108;42.684;23.350;2022-08-25T05:20:52;95148.28;;;20.93;100.00
14067;BME280;7108;42.684;23.350;2022-08-25T05:23:22;95141.69;;;20.91;100.00
14067;BME280;7108;42.684;23.350;2022-08-25T05:25:50;95140.69;;;20.81;100.00
14067;BME280;7108;42.684;23.350;2022-08-25T05:28:18;95142.38;;;20.75;100.00
14067;BME280;7108;42.684;23.350;2022-08-25T05:30:44;95108.19;;;20.64;100.00
14067;BME280;7108;42.684;23.350;2022-08-25T05:33:11;95136.78;;;20.82;100.00
14067;BME280;7108;42.684;23.350;2022-08-25T05:35:38;95146.72;;;20.92;100.00
14067;BME280;7108;42.684;23.350;2022-08-25T05:38:04;95138.16;;;20.90;100.00
14067;BME280;7108;42.684;23.350;2022-08-25T05:40:31;95127.97;;;20.91;100.00
14067;BME280;7108;42.684;23.350;2022-08-25T05:42:57;95135.00;;;20.92;100.00
14067;BME280;7108;42.684;23.350;2022-08-25T05:45:23;95113.31;;;20.81;100.00
14067;BME280;7108;42.684;23.350;2022-08-25T05:47:49;95127.91;;;20.94;100.00
14067;BME280;7108;42.684;23.350;2022-08-25T05:50:15;95128.16;;;21.00;100.00
14067;BME280;7108;42.684;23.350;2022-08-25T05:52:41;95126.97;;;21.01;100.00
14067;BME280;7108;42.684;23.350;2022-08-25T05:55:07;95133.78;;;20.93;100.00
14067;BME280;7108;42.684;23.350;2022-08-25T05:57:33;95146.56;;;20.99;100.00
14067;BME280;7108;42.684;23.350;2022-08-25T05:59:59;95132.09;;;20.99;100.00
14067;BME280;7108;42.684;23.350;2022-08-25T06:02:25;95139.41;;;21.05;100.00
14067;BME280;7108;42.684;23.350;2022-08-25T06:05:09;95148.09;;;21.00;100.00
14067;BME280;7108;42.684;23.350;2022-08-25T06:07:35;95141.28;;;21.08;100.00
14067;BME280;7108;42.684;23.350;2022-08-25T06:10:06;95147.44;;;21.12;100.00
14067;BME280;7108;42.684;23.350;2022-08-25T06:12:32;95131.06;;;21.08;100.00
14067;BME280;7108;42.684;23.350;2022-08-25T06:15:00;95132.69;;;21.06;100.00
14067;BME280;7108;42.684;23.350;2022-08-25T06:17:26;95129.19;;;21.06;100.00
14067;BME280;7108;42.684;23.350;2022-08-25T06:19:52;95135.38;;;21.09;100.00
14067;BME280;7108;42.684;23.350;2022-08-25T06:22:19;95131.97;;;21.21;100.00
14067;BME280;7108;42.684;23.350;2022-08-25T06:24:45;95139.09;;;21.35;100.00
14067;BME280;7108;42.684;23.350;2022-08-25T06:27:11;95130.19;;;21.31;100.00
14067;BME280;7108;42.684;23.350;2022-08-25T06:29:36;95116.38;;;21.34;100.00
14067;BME280;7108;42.684;23.350;2022-08-25T06:32:02;95128.72;;;21.42;100.00
14067;BME280;7108;42.684;23.350;2022-08-25T06:34:27;95143.47;;;21.48;100.00
14067;BME280;7108;42.684;23.350;2022-08-25T06:36:53;95136.94;;;21.42;100.00
14067;BME280;7108;42.684;23.350;2022-08-25T06:39:18;95133.69;;;21.47;100.00
14067;BME280;7108;42.684;23.350;2022-08-25T06:41:44;95125.53;;;21.44;100.00
14067;BME280;7108;42.684;23.350;2022-08-25T06:44:10;95122.22;;;21.52;100.00
14067;BME280;7108;42.684;23.350;2022-08-25T06:46:36;95132.31;;;21.55;100.00
14067;BME280;7108;42.684;23.350;2022-08-25T06:49:02;95124.59;;;21.66;100.00
14067;BME280;7108;42.684;23.350;2022-08-25T06:51:27;95130.78;;;21.70;100.00
14067;BME280;7108;42.684;23.350;2022-08-25T06:53:53;95115.34;;;21.60;100.00
14067;BME280;7108;42.684;23.350;2022-08-25T06:56:20;95134.88;;;21.78;100.00
14067;BME280;7108;42.684;23.350;2022-08-25T06:58:46;95141.19;;;21.91;100.00
14067;BME280;7108;42.684;23.350;2022-08-25T07:01:23;95134.69;;;22.01;100.00
14067;BME280;7108;42.684;23.350;2022-08-25T07:03:55;95122.94;;;22.00;100.00
14067;BME280;7108;42.684;23.350;2022-08-25T07:06:21;95133.19;;;22.12;100.00
14067;BME280;7108;42.684;23.350;2022-08-25T07:08:48;95132.22;;;22.19;100.00
14067;BME280;7108;42.684;23.350;2022-08-25T07:11:15;95134.63;;;22.17;100.00
14067;BME280;7108;42.684;23.350;2022-08-25T07:13:41;95133.88;;;22.16;100.00
14067;BME280;7108;42.684;23.350;2022-08-25T07:16:07;95119.13;;;22.10;100.00
14067;BME280;7108;42.684;23.350;2022-08-25T07:18:34;95130.84;;;22.27;100.00
14067;BME280;7108;42.684;23.350;2022-08-25T07:21:00;95126.91;;;22.28;100.00
14067;BME280;7108;42.684;23.350;2022-08-25T07:23:26;95137.84;;;22.43;100.00
14067;BME280;7108;42.684;23.350;2022-08-25T07:25:52;95129.28;;;22.42;100.00
14067;BME280;7108;42.684;23.350;2022-08-25T07:28:19;95139.09;;;22.55;100.00
14067;BME280;7108;42.684;23.350;2022-08-25T07:30:45;95125.91;;;22.50;100.00
14067;BME280;7108;42.684;23.350;2022-08-25T07:33:11;95133.81;;;22.60;100.00
14067;BME280;7108;42.684;23.350;2022-08-25T07:35:37;95128.56;;;22.66;100.00
14067;BME280;7108;42.684;23.350;2022-08-25T07:38:04;95132.66;;;22.74;100.00
14067;BME280;7108;42.684;23.350;2022-08-25T07:40:32;95113.19;;;22.68;100.00
14067;BME280;7108;42.684;23.350;2022-08-25T07:43:01;95120.78;;;22.77;100.00
14067;BME280;7108;42.684;23.350;2022-08-25T07:45:32;95133.09;;;22.85;100.00
14067;BME280;7108;42.684;23.350;2022-08-25T07:48:00;95137.50;;;22.82;100.00
14067;BME280;7108;42.684;23.350;2022-08-25T07:50:27;95125.06;;;22.78;100.00
14067;BME280;7108;42.684;23.350;2022-08-25T07:52:54;95126.16;;;22.80;100.00
14067;BME280;7108;42.684;23.350;2022-08-25T07:55:20;95146.66;;;22.92;100.00
14067;BME280;7108;42.684;23.350;2022-08-25T07:57:46;95145.41;;;22.93;100.00
14067;BME280;7108;42.684;23.350;2022-08-25T08:00:14;95127.44;;;23.04;100.00
14067;BME280;7108;42.684;23.350;2022-08-25T08:02:40;95120.41;;;23.03;100.00
14067;BME280;7108;42.684;23.350;2022-08-25T08:05:07;95128.31;;;23.13;100.00
14067;BME280;7108;42.684;23.350;2022-08-25T08:07:32;95120.50;;;23.12;100.00
14067;BME280;7108;42.684;23.350;2022-08-25T08:09:58;95126.78;;;23.25;100.00
14067;BME280;7108;42.684;23.350;2022-08-25T08:12:24;95108.41;;;23.22;100.00
14067;BME280;7108;42.684;23.350;2022-08-25T08:14:51;95112.59;;;23.26;100.00
14067;BME280;7108;42.684;23.350;2022-08-25T08:17:18;95119.84;;;23.45;100.00
14067;BME280;7108;42.684;23.350;2022-08-25T08:19:43;95108.16;;;23.54;100.00
14067;BME280;7108;42.684;23.350;2022-08-25T08:22:09;95114.66;;;23.72;100.00
14067;BME280;7108;42.684;23.350;2022-08-25T08:24:40;95115.00;;;23.74;100.00
14067;BME280;7108;42.684;23.350;2022-08-25T08:27:09;95096.47;;;23.62;100.00
14067;BME280;7108;42.684;23.350;2022-08-25T08:29:36;95113.44;;;23.73;100.00
14067;BME280;7108;42.684;23.350;2022-08-25T08:32:02;95111.28;;;23.89;100.00
14067;BME280;7108;42.684;23.350;2022-08-25T08:34:29;95086.22;;;23.75;100.00
14067;BME280;7108;42.684;23.350;2022-08-25T08:36:55;95115.13;;;23.92;100.00
14067;BME280;7108;42.684;23.350;2022-08-25T08:39:21;95116.63;;;24.05;100.00
14067;BME280;7108;42.684;23.350;2022-08-25T08:45:01;95107.69;;;24.14;100.00
14067;BME280;7108;42.684;23.350;2022-08-25T08:47:52;95103.03;;;24.23;100.00
14067;BME280;7108;42.684;23.350;2022-08-25T08:57:59;95088.94;;;24.21;100.00
14067;BME280;7108;42.684;23.350;2022-08-25T09:00:27;95094.84;;;24.32;100.00
14067;BME280;7108;42.684;23.350;2022-08-25T09:03:11;95101.97;;;24.42;100.00
14067;BME280;7108;42.684;23.350;2022-08-25T09:05:50;95095.00;;;24.38;100.00
14067;BME280;7108;42.684;23.350;2022-08-25T09:08:17;95093.16;;;24.35;100.00
14067;BME280;7108;42.684;23.350;2022-08-25T09:14:07;95097.31;;;24.51;100.00
14067;BME280;7108;42.684;23.350;2022-08-25T09:23:05;95068.38;;;24.35;100.00
14067;BME280;7108;42.684;23.350;2022-08-25T09:33:33;95077.94;;;24.64;100.00
14067;BME280;7108;42.684;23.350;2022-08-25T09:35:59;95092.56;;;24.73;100.00
14067;BME280;7108;42.684;23.350;2022-08-25T09:38:26;95072.72;;;24.66;100.00
14067;BME280;7108;42.684;23.350;2022-08-25T09:40:55;95083.69;;;24.78;100.00
14067;BME280;7108;42.684;23.350;2022-08-25T09:43:34;95073.59;;;24.84;100.00
14067;BME280;7108;42.684;23.350;2022-08-25T09:46:14;95074.09;;;24.92;98.37
14067;BME280;7108;42.684;23.350;2022-08-25T09:53:54;95063.50;;;25.12;91.39
14067;BME280;7108;42.684;23.350;2022-08-25T09:56:22;95071.66;;;25.24;89.76
14067;BME280;7108;42.684;23.350;2022-08-25T09:58:48;95061.22;;;25.19;87.80
14067;BME280;7108;42.684;23.350;2022-08-25T10:01:18;95070.25;;;25.19;90.47
14067;BME280;7108;42.684;23.350;2022-08-25T10:04:00;95081.91;;;25.23;91.36
14067;BME280;7108;42.684;23.350;2022-08-25T10:06:42;95075.16;;;25.15;88.96
14067;BME280;7108;42.684;23.350;2022-08-25T10:09:23;95079.59;;;25.13;92.50
14067;BME280;7108;42.684;23.350;2022-08-25T10:11:49;95073.47;;;25.18;94.52
14067;BME280;7108;42.684;23.350;2022-08-25T10:17:25;95083.41;;;25.46;89.70
14067;BME280;7108;42.684;23.350;2022-08-25T10:20:37;95077.56;;;25.53;89.98
14067;BME280;7108;42.684;23.350;2022-08-25T10:22:41;95072.97;;;25.59;92.78
14067;BME280;7108;42.684;23.350;2022-08-25T10:25:10;95062.88;;;25.65;87.20
14067;BME280;7108;42.684;23.350;2022-08-25T10:30:13;95073.22;;;25.91;91.60
14067;BME280;7108;42.684;23.350;2022-08-25T10:38:33;95057.09;;;26.16;82.33
14067;BME280;7108;42.684;23.350;2022-08-25T10:50:13;95037.63;;;26.20;77.90
14067;BME280;7108;42.684;23.350;2022-08-25T11:01:56;95036.69;;;26.23;82.42
14067;BME280;7108;42.684;23.350;2022-08-25T11:04:39;95032.41;;;26.31;76.74
14067;BME280;7108;42.684;23.350;2022-08-25T11:09:43;95033.16;;;26.40;76.27
14067;BME280;7108;42.684;23.350;2022-08-25T11:12:21;95021.81;;;26.38;77.32
14067;BME280;7108;42.684;23.350;2022-08-25T11:14:54;95031.03;;;26.44;80.28
14067;BME280;7108;42.684;23.350;2022-08-25T11:17:24;95017.03;;;26.30;77.19
14067;BME280;7108;42.684;23.350;2022-08-25T11:19:56;95020.75;;;26.36;82.30
14067;BME280;7108;42.684;23.350;2022-08-25T11:22:27;95019.03;;;26.47;84.17
14067;BME280;7108;42.684;23.350;2022-08-25T11:30:23;95009.28;;;26.69;74.24
14067;BME280;7108;42.684;23.350;2022-08-25T11:32:50;95003.44;;;26.76;71.13
14067;BME280;7108;42.684;23.350;2022-08-25T11:35:19;95003.28;;;26.80;72.35
14067;BME280;7108;42.684;23.350;2022-08-25T11:49:29;94986.16;;;26.99;70.10
14067;BME280;7108;42.684;23.350;2022-08-25T11:52:02;94994.44;;;27.08;69.86
14067;BME280;7108;42.684;23.350;2022-08-25T11:54:35;94987.66;;;27.09;72.52
14067;BME280;7108;42.684;23.350;2022-08-25T11:57:06;94977.00;;;27.17;73.35
14067;BME280;7108;42.684;23.350;2022-08-25T12:05:02;94985.97;;;27.03;70.14
14067;BME280;7108;42.684;23.350;2022-08-25T12:26:26;94972.56;;;27.10;62.75
14067;BME280;7108;42.684;23.350;2022-08-25T12:31:57;94987.66;;;27.09;62.73
14067;BME280;7108;42.684;23.350;2022-08-25T12:35:29;94986.88;;;27.09;62.19
14067;BME280;7108;42.684;23.350;2022-08-25T12:38:13;94971.41;;;26.93;62.62
14067;BME280;7108;42.684;23.350;2022-08-25T12:45:51;94983.84;;;27.07;60.04
14067;BME280;7108;42.684;23.350;2022-08-25T12:53:41;94980.53;;;26.85;58.96
14067;BME280;7108;42.684;23.350;2022-08-25T12:58:53;94986.84;;;26.76;59.39
14067;BME280;7108;42.684;23.350;2022-08-25T13:14:55;94982.44;;;26.61;62.06
14067;BME280;7108;42.684;23.350;2022-08-25T13:17:33;94980.19;;;26.50;60.32
14067;BME280;7108;42.684;23.350;2022-08-25T13:22:36;94986.19;;;26.49;63.36
14067;BME280;7108;42.684;23.350;2022-08-25T13:25:02;94987.84;;;26.55;61.29
14067;BME280;7108;42.684;23.350;2022-08-25T13:27:31;94980.19;;;26.50;64.17
14067;BME280;7108;42.684;23.350;2022-08-25T13:29:58;94978.59;;;26.58;60.38
14067;BME280;7108;42.684;23.350;2022-08-25T13:32:29;94974.75;;;26.65;61.41
14067;BME280;7108;42.684;23.350;2022-08-25T13:37:39;94970.47;;;26.64;59.75
14067;BME280;7108;42.684;23.350;2022-08-25T13:40:25;94982.75;;;26.63;59.35
14067;BME280;7108;42.684;23.350;2022-08-25T13:43:08;94974.19;;;26.52;60.38
14067;BME280;7108;42.684;23.350;2022-08-25T13:45:38;94978.00;;;26.54;61.41
14067;BME280;7108;42.684;23.350;2022-08-25T13:48:05;94973.44;;;26.51;61.22
14067;BME280;7108;42.684;23.350;2022-08-25T13:50:37;94984.13;;;26.58;60.61
14067;BME280;7108;42.684;23.350;2022-08-25T13:53:13;94973.72;;;26.53;60.19
14067;BME280;7108;42.684;23.350;2022-08-25T13:58:18;94980.94;;;26.60;58.85
14067;BME280;7108;42.684;23.350;2022-08-25T14:14:08;94976.50;;;26.45;59.62
14067;BME280;7108;42.684;23.350;2022-08-25T14:16:38;94966.41;;;26.42;60.75
14067;BME280;7108;42.684;23.350;2022-08-25T14:19:18;94962.25;;;26.28;64.22
14067;BME280;7108;42.684;23.350;2022-08-25T14:21:45;94977.72;;;26.35;61.45
14067;BME280;7108;42.684;23.350;2022-08-25T14:24:20;94977.28;;;26.36;59.67
14067;BME280;7108;42.684;23.350;2022-08-25T14:26:46;94983.13;;;26.38;59.65
14067;BME280;7108;42.684;23.350;2022-08-25T14:29:13;94974.06;;;26.38;58.34
14067;BME280;7108;42.684;23.350;2022-08-25T14:31:40;94956.56;;;26.23;58.16
14067;BME280;7108;42.684;23.350;2022-08-25T14:34:16;94972.69;;;26.33;58.72
14067;BME280;7108;42.684;23.350;2022-08-25T14:36:42;94960.88;;;26.24;59.53
14067;BME280;7108;42.684;23.350;2022-08-25T14:39:09;94972.22;;;26.35;59.45
14067;BME280;7108;42.684;23.350;2022-08-25T14:41:37;94963.31;;;26.31;60.05
14067;BME280;7108;42.684;23.350;2022-08-25T14:44:04;94978.84;;;26.37;59.61
14067;BME280;7108;42.684;23.350;2022-08-25T14:46:32;94961.19;;;26.26;60.61
14067;BME280;7108;42.684;23.350;2022-08-25T14:49:01;94981.59;;;26.37;59.66
14067;BME280;7108;42.684;23.350;2022-08-25T14:51:29;94967.59;;;26.32;59.74
14067;BME280;7108;42.684;23.350;2022-08-25T14:53:58;94969.28;;;26.29;60.14
14067;BME280;7108;42.684;23.350;2022-08-25T14:56:25;94966.84;;;26.31;61.65
14067;BME280;7108;42.684;23.350;2022-08-25T14:58:50;94967.47;;;26.26;60.47
14067;BME280;7108;42.684;23.350;2022-08-25T15:01:17;94947.72;;;26.10;61.77
14067;BME280;7108;42.684;23.350;2022-08-25T15:03:46;94970.72;;;26.16;62.06
14067;BME280;7108;42.684;23.350;2022-08-25T15:06:15;94982.53;;;26.16;62.78
14067;BME280;7108;42.684;23.350;2022-08-25T15:08:41;94980.84;;;26.10;62.94
14067;BME280;7108;42.684;23.350;2022-08-25T15:11:26;94969.34;;;25.93;63.43
14067;BME280;7108;42.684;23.350;2022-08-25T15:13:52;94979.94;;;26.04;63.98
14067;BME280;7108;42.684;23.350;2022-08-25T15:16:28;94988.84;;;25.99;64.52
14067;BME280;7108;42.684;23.350;2022-08-25T15:18:54;94978.69;;;25.96;64.16
14067;BME280;7108;42.684;23.350;2022-08-25T15:21:21;94982.25;;;25.87;64.65
14067;BME280;7108;42.684;23.350;2022-08-25T15:23:46;94977.31;;;25.82;64.82
14067;BME280;7108;42.684;23.350;2022-08-25T15:26:13;94980.56;;;25.81;65.80
14067;BME280;7108;42.684;23.350;2022-08-25T15:28:42;94982.56;;;25.81;67.24
14067;BME280;7108;42.684;23.350;2022-08-25T15:31:09;94970.41;;;25.69;68.88
14067;BME280;7108;42.684;23.350;2022-08-25T15:33:37;94977.19;;;25.77;70.01
14067;BME280;7108;42.684;23.350;2022-08-25T15:36:05;94975.66;;;25.76;69.01
14067;BME280;7108;42.684;23.350;2022-08-25T15:38:31;94951.25;;;25.66;70.90
14067;BME280;7108;42.684;23.350;2022-08-25T15:40:56;94963.84;;;25.67;71.01